| Date | Time | Temp. (oF) | Dew Point (oF) | Rel. Hum. (%) | Press. (in.) | Wind Dir. | Wind Speed (mph) | Hourly Rainfall (in.) |
|
|---|---|---|---|---|---|---|---|---|---|
| 1 | 11/07 | 00:00 | 59 | 44 | 59 | 30.01 | WNW | 4 | 0.00 |
| 2 | 11/06 | 23:00 | 61 | 45 | 57 | 29.98 | WNW | 4 | 0.00 |
| 3 | 11/06 | 22:00 | 62 | 48 | 62 | 29.96 | W | 4 | 0.00 |
| 4 | 11/06 | 21:00 | 62 | 52 | 72 | 29.95 | WSW | 10 | 0.00 |
| 5 | 11/06 | 20:00 | 61 | 58 | 92 | 29.91 | WSW | 5 | 0.06 |
| 6 | 11/06 | 19:00 | 68 | 58 | 73 | 29.82 | S | 7 | 0.00 |
| 7 | 11/06 | 18:00 | 69 | 59 | 71 | 29.83 | S | 7 | 0.00 |
| 8 | 11/06 | 17:00 | 69 | 58 | 70 | 29.81 | SSW | 12 | 0.00 |
| 9 | 11/06 | 16:00 | 71 | 59 | 68 | 29.80 | SSE | 7 | 0.00 |
| 10 | 11/06 | 15:00 | 72 | 59 | 66 | 29.82 | SSW | 7 | 0.00 |
| 11 | 11/06 | 14:00 | 72 | 59 | 66 | 29.84 | S | 6 | 0.00 |
| 12 | 11/06 | 13:00 | 72 | 60 | 67 | 29.86 | SSE | 6 | 0.00 |
| 13 | 11/06 | 12:00 | 70 | 59 | 69 | 29.90 | S | 5 | 0.00 |
| 14 | 11/06 | 11:00 | 65 | 58 | 80 | 29.96 | SW | 7 | 0.00 |
| 15 | 11/06 | 10:00 | 60 | 57 | 92 | 29.99 | S | 5 | 0.00 |
| 16 | 11/06 | 09:00 | 57 | 57 | 100 | 30.01 | S | 3 | 0.00 |
| 17 | 11/06 | 08:00 | 51 | 50 | 100 | 30.02 | N | 0 | 0.00 |
| 18 | 11/06 | 07:00 | 49 | 49 | 100 | 30.01 | N | 0 | 0.00 |
| 19 | 11/06 | 06:00 | 48 | 48 | 100 | 30.01 | NW | 0 | 0.00 |
| 20 | 11/06 | 05:00 | 49 | 49 | 100 | 30.01 | NW | 0 | 0.00 |
| 21 | 11/06 | 04:00 | 48 | 47 | 99 | 30.01 | NE | 0 | 0.00 |
| 22 | 11/06 | 03:00 | 48 | 47 | 99 | 30.02 | NE | 0 | 0.00 |
| 23 | 11/06 | 02:00 | 49 | 48 | 97 | 30.03 | NE | 0 | 0.00 |
| 24 | 11/06 | 01:00 | 50 | 48 | 96 | 30.03 | ENE | 0 | 0.00 |